createdAt,value
2022-10-08T00:00:16.558Z,16.90
2022-10-08T00:01:19.409Z,15.50
2022-10-08T00:02:22.573Z,13.40
2022-10-08T00:03:26.771Z,13.50
2022-10-08T00:04:29.514Z,14.70
2022-10-08T00:05:32.777Z,15.70
2022-10-08T00:06:35.074Z,13.30
2022-10-08T00:07:37.204Z,13.20
2022-10-08T00:08:40.735Z,11.10
2022-10-08T00:09:42.847Z,16.80
2022-10-08T00:10:48.840Z,14.00
2022-10-08T00:11:52.157Z,14.50
2022-10-08T00:12:54.817Z,15.55
2022-10-08T00:13:57.152Z,11.00
2022-10-08T00:14:59.293Z,13.70
2022-10-08T00:16:01.549Z,14.20
2022-10-08T00:17:03.899Z,16.40
2022-10-08T00:18:06.375Z,15.00
2022-10-08T00:20:23.186Z,7.60
2022-10-08T00:22:42.354Z,15.50
2022-10-08T00:23:46.027Z,13.80
2022-10-08T00:24:49.445Z,13.80
2022-10-08T00:25:51.952Z,14.30
2022-10-08T00:26:54.156Z,14.00
2022-10-08T00:27:57.837Z,15.50
2022-10-08T00:29:04.657Z,13.09
2022-10-08T00:30:08.023Z,9.60
2022-10-08T00:31:12.822Z,14.10
2022-10-08T00:32:15.230Z,11.40
2022-10-08T00:33:17.425Z,14.60
2022-10-08T00:34:20.987Z,14.60
2022-10-08T00:35:23.153Z,12.80
2022-10-08T00:36:27.503Z,13.80
2022-10-08T00:37:30.250Z,11.90
2022-10-08T00:38:32.688Z,13.70
2022-10-08T00:39:34.833Z,15.00
2022-10-08T00:40:44.616Z,13.90
2022-10-08T00:41:49.085Z,13.20
2022-10-08T00:42:51.411Z,15.10
2022-10-08T00:43:55.649Z,13.10
2022-10-08T00:45:00.626Z,13.10
2022-10-08T00:46:03.432Z,15.30
2022-10-08T00:47:08.923Z,12.36
2022-10-08T00:48:17.329Z,14.30
2022-10-08T00:49:20.499Z,15.40
2022-10-08T00:50:32.326Z,14.20
2022-10-08T00:51:35.940Z,15.10
2022-10-08T00:53:55.615Z,12.20
2022-10-08T00:54:58.836Z,13.10
2022-10-08T00:56:02.078Z,14.00
2022-10-08T00:57:05.709Z,13.70
2022-10-08T00:58:14.993Z,16.10
2022-10-08T00:59:17.306Z,13.90
2022-10-08T01:00:22.203Z,14.18
2022-10-08T01:01:25.670Z,7.60
2022-10-08T01:02:28.387Z,14.30
2022-10-08T01:03:31.047Z,13.82
2022-10-08T01:04:33.534Z,14.50
2022-10-08T01:05:42.093Z,11.90
2022-10-08T01:08:27.678Z,11.80
2022-10-08T01:09:45.753Z,13.90
2022-10-08T01:10:54.867Z,15.10
2022-10-08T01:12:09.690Z,12.00
2022-10-08T01:13:35.350Z,15.00
2022-10-08T01:14:54.790Z,13.60
2022-10-08T01:16:03.824Z,12.40
2022-10-08T01:17:10.833Z,13.60
2022-10-08T01:19:55.538Z,13.10
2022-10-08T01:21:09.143Z,13.10
2022-10-08T01:22:31.668Z,13.20
2022-10-08T01:23:54.995Z,13.00
2022-10-08T01:25:00.103Z,13.50
2022-10-08T01:26:21.634Z,13.00
2022-10-08T01:27:41.778Z,15.30
2022-10-08T01:28:47.258Z,13.40
2022-10-08T01:29:49.607Z,12.60
2022-10-08T01:31:01.412Z,14.00
2022-10-08T01:32:15.975Z,9.60
2022-10-08T01:33:24.454Z,9.60
2022-10-08T01:35:52.738Z,12.80
2022-10-08T01:36:56.431Z,8.60
2022-10-08T01:38:00.587Z,13.27
2022-10-08T01:39:05.170Z,13.20
2022-10-08T01:40:11.635Z,13.30
2022-10-08T01:41:13.935Z,13.90
2022-10-08T01:42:16.619Z,13.40
2022-10-08T01:43:20.741Z,13.10
2022-10-08T01:46:01.128Z,12.90
2022-10-08T01:47:04.830Z,13.30
2022-10-08T01:48:10.375Z,13.20
2022-10-08T01:49:15.440Z,13.20
2022-10-08T01:51:35.396Z,12.50
2022-10-08T01:52:56.044Z,6.60
2022-10-08T01:53:59.514Z,13.70
2022-10-08T01:55:03.360Z,12.60
2022-10-08T01:56:08.351Z,12.60
2022-10-08T01:57:11.947Z,13.60
2022-10-08T01:58:16.123Z,12.80
2022-10-08T01:59:40.995Z,11.90
2022-10-08T02:00:43.315Z,14.00
2022-10-08T02:03:13.296Z,12.30
2022-10-08T02:04:16.766Z,12.50
2022-10-08T02:05:18.945Z,12.00
2022-10-08T02:06:21.185Z,13.60
2022-10-08T02:07:26.248Z,11.64
2022-10-08T02:08:29.321Z,13.10
2022-10-08T02:09:33.594Z,11.20
2022-10-08T02:10:36.053Z,11.60
2022-10-08T02:11:38.178Z,12.20
2022-10-08T02:12:41.164Z,13.60
2022-10-08T02:13:43.451Z,13.30
2022-10-08T02:14:47.979Z,13.10
2022-10-08T02:15:53.953Z,12.40
2022-10-08T02:17:09.239Z,11.70
2022-10-08T02:18:17.812Z,12.10
2022-10-08T02:19:40.177Z,11.10
2022-10-08T02:22:00.318Z,13.60
2022-10-08T02:23:15.814Z,10.70
2022-10-08T02:24:22.355Z,10.70
2022-10-08T02:26:54.108Z,12.40
2022-10-08T02:29:23.902Z,13.50
2022-10-08T02:30:27.660Z,11.70
2022-10-08T02:31:36.576Z,13.00
2022-10-08T02:32:59.646Z,12.50
2022-10-08T02:35:50.633Z,11.90
2022-10-08T02:37:09.054Z,13.80
2022-10-08T02:39:38.936Z,11.50
2022-10-08T02:40:43.776Z,13.40
2022-10-08T02:41:51.603Z,12.50
2022-10-08T02:42:56.006Z,11.30
2022-10-08T02:43:59.824Z,12.40
2022-10-08T02:45:07.658Z,11.80
2022-10-08T02:47:26.682Z,11.90
2022-10-08T02:48:31.969Z,6.30
2022-10-08T02:49:39.513Z,12.90
2022-10-08T02:50:41.781Z,11.80
2022-10-08T02:52:58.486Z,12.60
2022-10-08T02:54:03.737Z,12.60
2022-10-08T02:55:15.654Z,10.50
2022-10-08T02:56:25.003Z,12.00
2022-10-08T02:57:36.304Z,11.80
2022-10-08T02:58:38.505Z,10.80
2022-10-08T02:59:40.900Z,12.00
2022-10-08T03:01:05.061Z,12.00
2022-10-08T03:02:08.375Z,11.40
2022-10-08T03:03:14.622Z,10.60
2022-10-08T03:05:32.146Z,9.90
2022-10-08T03:06:36.112Z,13.80
2022-10-08T03:07:39.560Z,11.20
2022-10-08T03:08:43.774Z,11.73
2022-10-08T03:09:46.485Z,11.90
2022-10-08T03:10:49.782Z,12.45
2022-10-08T03:11:53.749Z,12.50
2022-10-08T03:13:00.680Z,11.20
2022-10-08T03:14:04.255Z,13.50
2022-10-08T03:15:09.316Z,11.30
2022-10-08T03:16:13.102Z,10.50
2022-10-08T03:17:22.539Z,9.50
2022-10-08T03:18:24.677Z,7.60
2022-10-08T03:19:27.030Z,12.50
2022-10-08T03:20:30.840Z,12.70
2022-10-08T03:21:33.193Z,11.90
2022-10-08T03:22:35.568Z,13.10
2022-10-08T03:23:38.608Z,12.00
2022-10-08T03:24:40.650Z,11.80
2022-10-08T03:25:44.659Z,10.73
2022-10-08T03:26:46.946Z,12.00
2022-10-08T03:27:49.962Z,12.10
2022-10-08T03:28:52.539Z,11.60
2022-10-08T03:29:54.725Z,10.10
2022-10-08T03:30:58.215Z,13.20
2022-10-08T03:32:00.537Z,10.50
2022-10-08T03:33:02.636Z,11.80
2022-10-08T03:34:04.812Z,13.70
2022-10-08T03:35:07.513Z,11.60
2022-10-08T03:36:10.840Z,12.70
2022-10-08T03:37:12.990Z,11.90
2022-10-08T03:38:15.362Z,10.10
2022-10-08T03:39:17.458Z,12.70
2022-10-08T03:40:20.895Z,12.55
2022-10-08T03:41:23.170Z,9.18
2022-10-08T03:42:25.326Z,11.90
2022-10-08T03:43:32.855Z,11.00
2022-10-08T03:44:35.072Z,10.90
2022-10-08T03:45:37.290Z,13.40
2022-10-08T03:46:40.561Z,10.80
2022-10-08T03:47:42.683Z,10.10
2022-10-08T03:48:48.644Z,11.20
2022-10-08T03:49:51.103Z,8.90
2022-10-08T03:52:08.581Z,11.60
2022-10-08T03:53:11.041Z,13.10
2022-10-08T03:54:14.061Z,11.80
2022-10-08T03:55:17.147Z,11.91
2022-10-08T03:56:20.567Z,10.40
2022-10-08T03:57:23.325Z,11.20
2022-10-08T03:58:25.485Z,11.64
2022-10-08T03:59:27.681Z,10.00
2022-10-08T04:00:30.550Z,9.90
2022-10-08T04:01:33.112Z,12.36
2022-10-08T04:02:36.055Z,12.50
2022-10-08T04:03:39.951Z,13.09
2022-10-08T04:04:42.164Z,11.50
2022-10-08T04:05:49.581Z,10.90
2022-10-08T04:06:53.118Z,11.00
2022-10-08T04:07:56.236Z,12.50
2022-10-08T04:08:58.601Z,11.90
2022-10-08T04:10:01.307Z,11.20
2022-10-08T04:11:04.684Z,13.18
2022-10-08T04:12:07.858Z,13.70
2022-10-08T04:13:09.988Z,9.70
2022-10-08T04:14:12.130Z,10.90
2022-10-08T04:15:14.335Z,8.00
2022-10-08T04:16:18.468Z,13.00
2022-10-08T04:17:20.997Z,11.30
2022-10-08T04:18:23.561Z,12.50
2022-10-08T04:19:25.683Z,10.40
2022-10-08T04:20:27.897Z,11.20
2022-10-08T04:21:30.009Z,11.40
2022-10-08T04:22:32.652Z,9.30
2022-10-08T04:23:36.765Z,9.70
2022-10-08T04:24:39.059Z,11.50
2022-10-08T04:25:50.544Z,11.30
2022-10-08T04:26:52.851Z,12.40
2022-10-08T04:27:54.865Z,12.80
2022-10-08T04:28:57.014Z,10.90
2022-10-08T04:29:59.157Z,9.80
2022-10-08T04:31:04.951Z,12.80
2022-10-08T04:32:07.224Z,12.40
2022-10-08T04:33:09.910Z,12.90
2022-10-08T04:34:12.210Z,10.36
2022-10-08T04:35:14.352Z,11.60
2022-10-08T04:37:32.668Z,14.00
2022-10-08T04:38:35.831Z,11.00
2022-10-08T04:39:38.740Z,12.73
2022-10-08T04:40:41.017Z,14.40
2022-10-08T04:41:43.776Z,12.00
2022-10-08T04:42:51.978Z,10.80
2022-10-08T04:43:56.661Z,13.70
2022-10-08T04:45:01.082Z,13.60
2022-10-08T04:46:03.995Z,12.70
2022-10-08T04:47:06.372Z,12.00
2022-10-08T04:48:08.514Z,12.20
2022-10-08T04:49:10.886Z,8.90
2022-10-08T04:50:15.511Z,14.80
2022-10-08T04:51:20.254Z,11.30
2022-10-08T04:52:22.541Z,12.90
2022-10-08T04:53:26.544Z,11.60
2022-10-08T04:54:29.720Z,11.30
2022-10-08T04:55:32.486Z,11.20
2022-10-08T04:56:35.771Z,12.73
2022-10-08T04:57:37.960Z,14.40
2022-10-08T04:58:41.433Z,13.60
2022-10-08T04:59:59.680Z,12.40
2022-10-08T05:00:48.895Z,12.80
2022-10-08T05:01:53.568Z,11.80
2022-10-08T05:02:55.970Z,14.00
2022-10-08T05:03:59.545Z,15.00
2022-10-08T05:05:02.726Z,12.80
2022-10-08T05:06:05.760Z,13.10
2022-10-08T05:07:08.373Z,12.36
2022-10-08T05:08:11.077Z,12.64
2022-10-08T05:09:13.367Z,12.36
2022-10-08T05:10:16.734Z,12.00
2022-10-08T05:11:20.039Z,12.30
2022-10-08T05:12:22.648Z,13.40
2022-10-08T05:13:25.881Z,13.20
2022-10-08T05:14:28.161Z,12.00
2022-10-08T05:15:30.453Z,12.30
2022-10-08T05:16:32.840Z,12.30
2022-10-08T05:17:35.471Z,16.80
2022-10-08T05:18:39.013Z,12.60
2022-10-08T05:19:41.331Z,12.00
2022-10-08T05:20:43.695Z,13.80
2022-10-08T05:21:45.994Z,13.30
2022-10-08T05:22:48.729Z,12.10
2022-10-08T05:24:00.193Z,12.20
2022-10-08T05:25:03.308Z,12.40
2022-10-08T05:26:19.822Z,11.30
2022-10-08T05:27:22.038Z,14.20
2022-10-08T05:28:24.217Z,14.40
2022-10-08T05:29:27.092Z,12.40
2022-10-08T05:30:29.265Z,14.91
2022-10-08T05:31:34.975Z,13.00
2022-10-08T05:32:38.283Z,13.00
2022-10-08T05:33:40.464Z,14.90
2022-10-08T05:34:43.208Z,15.00
2022-10-08T05:35:45.381Z,8.50
2022-10-08T05:36:47.683Z,16.00
2022-10-08T05:37:51.731Z,9.70
2022-10-08T05:38:55.349Z,13.10
2022-10-08T05:39:58.445Z,14.30
2022-10-08T05:41:12.321Z,14.00
2022-10-08T05:42:14.603Z,15.50
2022-10-08T05:43:17.220Z,13.70
2022-10-08T05:44:19.626Z,9.60
2022-10-08T05:45:22.470Z,16.70
2022-10-08T05:46:26.197Z,15.00
2022-10-08T05:47:29.073Z,16.50
2022-10-08T05:48:31.131Z,12.40
2022-10-08T05:49:33.511Z,16.10
2022-10-08T05:50:36.638Z,12.10
2022-10-08T05:51:38.975Z,15.09
2022-10-08T05:52:41.192Z,14.10
2022-10-08T05:53:45.133Z,13.10
2022-10-08T05:54:47.335Z,14.30
2022-10-08T05:55:54.679Z,14.40
2022-10-08T05:56:58.190Z,15.10
2022-10-08T05:58:00.492Z,14.40
2022-10-08T05:59:02.614Z,16.20
2022-10-08T06:00:05.913Z,13.30
2022-10-08T06:02:30.253Z,16.00
2022-10-08T06:03:33.099Z,14.18
2022-10-08T06:04:36.586Z,14.70
2022-10-08T06:05:38.811Z,14.10
2022-10-08T06:06:41.720Z,14.60
2022-10-08T06:07:44.015Z,15.10
2022-10-08T06:08:46.189Z,15.50
2022-10-08T06:09:49.357Z,15.60
2022-10-08T06:10:52.150Z,15.30
2022-10-08T06:11:54.251Z,11.80
2022-10-08T06:12:56.415Z,14.00
2022-10-08T06:13:59.264Z,15.60
2022-10-08T06:15:02.623Z,15.45
2022-10-08T06:16:09.939Z,14.70
2022-10-08T06:17:12.296Z,15.50
2022-10-08T06:18:14.740Z,15.50
2022-10-08T06:19:16.867Z,14.90
2022-10-08T06:20:20.376Z,12.90
2022-10-08T06:21:24.535Z,14.00
2022-10-08T06:22:28.246Z,13.50
2022-10-08T06:23:31.618Z,15.50
2022-10-08T06:24:34.589Z,17.60
2022-10-08T06:25:37.463Z,13.80
2022-10-08T06:26:41.402Z,14.20
2022-10-08T06:27:43.885Z,16.00
2022-10-08T06:28:46.115Z,16.90
2022-10-08T06:29:48.588Z,14.00
2022-10-08T06:30:50.934Z,13.80
2022-10-08T06:31:53.478Z,16.60
2022-10-08T06:32:56.240Z,13.55
2022-10-08T06:33:58.468Z,13.30
2022-10-08T06:35:00.633Z,15.20
2022-10-08T06:36:07.637Z,15.60
2022-10-08T06:37:09.823Z,14.50
2022-10-08T06:38:12.295Z,15.70
2022-10-08T06:39:15.361Z,16.40
2022-10-08T06:40:18.870Z,15.70
2022-10-08T06:41:21.421Z,13.70
2022-10-08T06:42:24.308Z,15.80
2022-10-08T06:43:26.745Z,18.20
2022-10-08T06:44:29.644Z,16.80
2022-10-08T06:45:31.949Z,10.60
2022-10-08T06:46:36.008Z,17.60
2022-10-08T06:47:39.066Z,18.90
2022-10-08T06:48:41.675Z,18.90
2022-10-08T06:49:45.924Z,18.10
2022-10-08T06:50:48.330Z,18.00
2022-10-08T06:51:50.588Z,17.60
2022-10-08T06:52:52.792Z,18.30
2022-10-08T06:53:58.710Z,21.20
2022-10-08T06:55:01.355Z,20.80
2022-10-08T06:57:19.179Z,19.40
2022-10-08T06:58:22.489Z,20.90
2022-10-08T06:59:26.874Z,20.90
2022-10-08T07:00:29.973Z,20.90
2022-10-08T07:01:34.168Z,20.20
2022-10-08T07:02:36.544Z,20.10
2022-10-08T07:03:38.804Z,18.60
2022-10-08T07:04:40.980Z,18.60
2022-10-08T07:05:43.234Z,15.50
2022-10-08T07:06:45.738Z,20.10
2022-10-08T07:07:47.854Z,20.90
2022-10-08T07:08:54.499Z,19.20
2022-10-08T07:09:56.666Z,18.70
2022-10-08T07:11:06.235Z,18.70
2022-10-08T07:12:08.398Z,18.40
2022-10-08T07:13:10.993Z,17.30
2022-10-08T07:14:13.313Z,18.27
2022-10-08T07:15:15.828Z,16.90
2022-10-08T07:16:21.120Z,12.30
2022-10-08T07:17:23.487Z,18.60
2022-10-08T07:18:26.796Z,17.90
2022-10-08T07:19:29.076Z,19.50
2022-10-08T07:20:32.859Z,19.80
2022-10-08T07:21:35.902Z,18.40
2022-10-08T07:22:38.057Z,19.45
2022-10-08T07:23:40.419Z,14.70
2022-10-08T07:24:42.654Z,20.40
2022-10-08T07:25:57.125Z,20.90
2022-10-08T07:26:59.846Z,17.20
2022-10-08T07:28:03.768Z,16.18
2022-10-08T07:29:08.952Z,18.00
2022-10-08T07:30:12.234Z,16.20
2022-10-08T07:31:17.487Z,18.10
2022-10-08T07:32:19.882Z,14.30
2022-10-08T07:33:23.416Z,16.90
2022-10-08T07:34:26.508Z,16.90
2022-10-08T07:35:29.675Z,15.40
2022-10-08T07:36:32.453Z,15.70
2022-10-08T07:37:34.608Z,15.50
2022-10-08T07:38:37.149Z,14.60
2022-10-08T07:39:39.245Z,13.10
2022-10-08T07:40:42.412Z,16.60
2022-10-08T07:41:44.962Z,15.18
2022-10-08T07:42:47.575Z,14.09
2022-10-08T07:43:54.890Z,15.64
2022-10-08T07:44:57.385Z,15.70
2022-10-08T07:45:59.413Z,15.30
2022-10-08T07:47:03.197Z,14.80
2022-10-08T07:48:05.568Z,11.70
2022-10-08T07:49:08.792Z,17.10
2022-10-08T07:50:11.108Z,12.00
2022-10-08T07:51:17.209Z,13.90
2022-10-08T07:52:21.023Z,15.00
2022-10-08T07:53:23.201Z,9.90
2022-10-08T07:54:25.432Z,14.20
2022-10-08T07:55:27.548Z,13.90
2022-10-08T07:56:30.832Z,14.60
2022-10-08T07:57:33.109Z,16.20
2022-10-08T07:58:35.444Z,14.30
2022-10-08T07:59:37.623Z,14.10
2022-10-08T08:00:40.208Z,13.60
2022-10-08T08:01:42.625Z,14.00
2022-10-08T08:02:50.408Z,17.00
2022-10-08T08:03:55.129Z,16.10
2022-10-08T08:04:57.949Z,14.80
2022-10-08T08:06:01.639Z,13.20
2022-10-08T08:07:04.457Z,14.90
2022-10-08T08:08:06.458Z,8.80
2022-10-08T08:09:08.949Z,13.60
2022-10-08T08:10:11.710Z,16.40
2022-10-08T08:11:15.459Z,10.50
2022-10-08T08:12:17.683Z,16.60
2022-10-08T08:13:20.111Z,15.70
2022-10-08T08:14:23.344Z,15.70
2022-10-08T08:15:26.128Z,15.80
2022-10-08T08:16:28.565Z,18.10
2022-10-08T08:17:30.782Z,14.30
2022-10-08T08:18:34.087Z,15.40
2022-10-08T08:19:36.295Z,15.20
2022-10-08T08:20:38.421Z,13.60
2022-10-08T08:21:40.920Z,14.50
2022-10-08T08:22:43.153Z,13.70
2022-10-08T08:23:46.826Z,15.50
2022-10-08T08:24:49.016Z,13.90
2022-10-08T08:25:51.170Z,14.70
2022-10-08T08:26:57.730Z,13.60
2022-10-08T08:27:59.764Z,11.60
2022-10-08T08:29:05.057Z,11.70
2022-10-08T08:30:09.378Z,12.00
2022-10-08T08:31:16.007Z,12.40
2022-10-08T08:32:19.628Z,11.10
2022-10-08T08:33:21.891Z,10.20
2022-10-08T08:34:24.328Z,6.60
2022-10-08T08:35:26.638Z,10.30
2022-10-08T08:36:32.417Z,10.70
2022-10-08T08:37:35.619Z,6.90
2022-10-08T08:38:39.034Z,9.70
2022-10-08T08:39:41.414Z,10.20
2022-10-08T08:40:43.915Z,9.10
2022-10-08T08:42:22.014Z,6.50
2022-10-08T08:43:24.626Z,8.10
2022-10-08T08:44:32.685Z,5.00
2022-10-08T08:45:46.514Z,8.20
2022-10-08T08:46:42.289Z,7.40
2022-10-08T08:49:03.957Z,7.40
2022-10-08T08:50:16.541Z,7.00
2022-10-08T08:51:18.920Z,8.50
2022-10-08T08:52:23.730Z,7.00
2022-10-08T08:53:26.987Z,7.50
2022-10-08T08:54:30.391Z,6.80
2022-10-08T08:55:34.973Z,6.20
2022-10-08T08:56:37.401Z,4.00
2022-10-08T08:58:04.337Z,4.60
2022-10-08T08:59:20.403Z,7.00
2022-10-08T09:00:30.496Z,6.60
2022-10-08T09:02:54.632Z,5.30
2022-10-08T09:04:00.509Z,6.20
2022-10-08T09:06:20.353Z,4.40
2022-10-08T09:07:24.416Z,5.00
2022-10-08T09:08:34.501Z,2.40
2022-10-08T09:09:41.146Z,3.60
2022-10-08T09:10:56.033Z,2.60
2022-10-08T09:11:58.265Z,4.00
2022-10-08T09:13:01.035Z,4.40
2022-10-08T09:14:11.934Z,4.70
2022-10-08T09:15:22.775Z,3.10
2022-10-08T09:16:28.177Z,2.00
2022-10-08T09:17:32.261Z,4.40
2022-10-08T09:18:34.489Z,5.70
2022-10-08T09:19:36.856Z,5.50
2022-10-08T09:20:40.429Z,4.00
2022-10-08T09:21:43.466Z,4.60
2022-10-08T09:22:47.312Z,6.10
2022-10-08T09:23:49.783Z,6.00
2022-10-08T09:24:57.276Z,6.09
2022-10-08T09:26:09.366Z,5.20
2022-10-08T09:27:13.767Z,8.00
2022-10-08T09:28:39.768Z,5.30
2022-10-08T09:29:42.136Z,6.60
2022-10-08T09:30:45.208Z,6.30
2022-10-08T09:31:49.996Z,5.70
2022-10-08T09:32:52.917Z,5.10
2022-10-08T09:34:14.485Z,7.10
2022-10-08T09:35:17.580Z,5.70
2022-10-08T09:36:32.542Z,5.90
2022-10-08T09:37:34.801Z,5.70
2022-10-08T09:38:36.929Z,5.00
2022-10-08T09:39:40.207Z,5.70
2022-10-08T09:40:42.554Z,5.30
2022-10-08T09:41:45.290Z,6.00
2022-10-08T09:43:06.585Z,6.20
2022-10-08T09:44:17.605Z,5.60
2022-10-08T09:46:45.303Z,5.60
2022-10-08T09:47:51.281Z,4.80
2022-10-08T09:48:56.358Z,4.80
2022-10-08T09:50:07.255Z,5.30
2022-10-08T09:51:14.480Z,5.70
2022-10-08T09:52:25.908Z,6.10
2022-10-08T09:54:51.932Z,5.00
2022-10-08T09:56:01.147Z,5.50
2022-10-08T09:57:03.244Z,4.60
2022-10-08T09:58:05.400Z,1.60
2022-10-08T09:59:09.895Z,4.30
2022-10-08T10:01:35.660Z,4.80
2022-10-08T10:02:38.734Z,5.91
2022-10-08T10:05:12.374Z,6.00
2022-10-08T10:06:20.988Z,6.60
2022-10-08T10:07:20.785Z,8.20
2022-10-08T10:08:46.659Z,7.90
2022-10-08T10:09:53.914Z,7.50
2022-10-08T10:10:56.354Z,8.50
2022-10-08T10:12:32.597Z,6.60
2022-10-08T10:13:37.727Z,8.10
2022-10-08T10:14:50.814Z,9.10
2022-10-08T10:17:32.916Z,7.30
2022-10-08T10:19:06.090Z,10.20
2022-10-08T10:20:21.778Z,8.10
2022-10-08T10:21:47.827Z,8.60
2022-10-08T10:22:58.978Z,7.10
2022-10-08T10:24:10.545Z,7.30
2022-10-08T10:26:42.823Z,7.10
2022-10-08T10:28:11.223Z,8.10
2022-10-08T10:29:16.837Z,8.70
2022-10-08T10:31:45.177Z,6.40
2022-10-08T10:32:58.491Z,8.30
2022-10-08T10:34:13.990Z,7.10
2022-10-08T10:36:34.783Z,7.60
2022-10-08T10:37:41.877Z,8.80
2022-10-08T10:38:57.280Z,8.50
2022-10-08T10:41:40.956Z,4.10
2022-10-08T10:42:51.749Z,7.80
2022-10-08T10:45:17.843Z,6.50
2022-10-08T10:47:48.670Z,7.60
2022-10-08T10:48:52.513Z,6.70
2022-10-08T10:49:56.070Z,7.80
2022-10-08T10:51:11.745Z,7.60
2022-10-08T10:54:03.110Z,6.00
2022-10-08T10:55:24.481Z,6.40
2022-10-08T10:56:30.267Z,4.40
2022-10-08T10:57:36.214Z,7.00
2022-10-08T10:59:57.586Z,6.00
2022-10-08T11:02:58.155Z,7.20
2022-10-08T11:04:04.230Z,4.10
2022-10-08T11:05:19.099Z,6.20
2022-10-08T11:06:33.975Z,5.50
2022-10-08T11:07:59.164Z,5.50
2022-10-08T11:09:11.288Z,6.30
2022-10-08T11:10:29.311Z,5.40
2022-10-08T11:12:53.814Z,4.90
2022-10-08T11:14:15.106Z,4.10
2022-10-08T11:15:24.142Z,6.10
2022-10-08T11:18:11.833Z,5.20
2022-10-08T11:19:35.970Z,5.00
2022-10-08T11:21:13.998Z,5.00
2022-10-08T11:22:27.165Z,6.10
2022-10-08T11:23:36.404Z,4.50
2022-10-08T11:24:57.694Z,5.90
2022-10-08T11:27:30.429Z,5.90
2022-10-08T11:28:57.662Z,4.90
2022-10-08T11:30:07.077Z,4.80
2022-10-08T11:31:19.466Z,5.20
2022-10-08T11:32:21.881Z,5.10
2022-10-08T11:33:24.853Z,4.80
2022-10-08T11:35:50.962Z,5.80
2022-10-08T11:37:04.807Z,6.70
2022-10-08T11:38:13.647Z,6.70
2022-10-08T11:39:23.018Z,5.40
2022-10-08T11:40:32.087Z,6.50
2022-10-08T11:41:47.890Z,4.70
2022-10-08T11:43:12.158Z,4.40
2022-10-08T11:44:17.313Z,3.30
2022-10-08T11:45:26.235Z,5.40
2022-10-08T11:46:33.265Z,3.60
2022-10-08T11:47:43.378Z,5.30
2022-10-08T11:48:45.902Z,5.70
2022-10-08T11:49:53.813Z,2.18
2022-10-08T11:51:20.332Z,5.20
2022-10-08T11:52:22.618Z,4.80
2022-10-08T11:53:24.763Z,4.10
2022-10-08T11:54:31.727Z,4.70
2022-10-08T11:55:34.562Z,4.50
2022-10-08T11:56:44.323Z,4.80
2022-10-08T11:58:07.659Z,4.60
2022-10-08T11:59:03.400Z,4.80
2022-10-08T12:01:55.122Z,3.10
2022-10-08T12:03:00.108Z,4.50
2022-10-08T12:04:19.107Z,4.30
2022-10-08T12:05:25.083Z,4.00
2022-10-08T12:06:28.824Z,4.20
2022-10-08T12:08:53.944Z,3.80
2022-10-08T12:10:09.949Z,3.50
2022-10-08T12:11:32.942Z,3.20
2022-10-08T12:12:54.256Z,3.80
2022-10-08T12:14:16.293Z,3.80
2022-10-08T12:15:30.040Z,3.50
2022-10-08T12:16:57.587Z,3.10
2022-10-08T12:18:01.545Z,4.30
2022-10-08T12:19:05.308Z,3.20
2022-10-08T12:20:22.921Z,4.50
2022-10-08T12:21:29.805Z,2.30
2022-10-08T12:22:35.899Z,4.20
2022-10-08T12:23:38.683Z,2.50
2022-10-08T12:24:49.750Z,3.20
2022-10-08T12:26:02.299Z,3.10
2022-10-08T12:27:23.794Z,4.00
2022-10-08T12:28:35.888Z,2.20
2022-10-08T12:30:00.947Z,3.40
2022-10-08T12:31:28.463Z,3.80
2022-10-08T12:34:04.446Z,3.10
2022-10-08T12:35:25.940Z,3.40
2022-10-08T12:36:41.074Z,3.50
2022-10-08T12:37:50.615Z,2.80
2022-10-08T12:39:09.250Z,3.70
2022-10-08T12:41:39.567Z,3.00
2022-10-08T12:42:42.158Z,2.60
2022-10-08T12:43:59.983Z,3.70
2022-10-08T12:45:16.831Z,3.10
2022-10-08T12:48:11.460Z,3.50
2022-10-08T12:49:41.769Z,2.00
2022-10-08T12:51:03.156Z,3.10
2022-10-08T12:52:14.082Z,2.80
2022-10-08T12:53:16.451Z,3.90
2022-10-08T12:54:23.220Z,2.20
2022-10-08T12:55:25.475Z,3.20
2022-10-08T12:56:28.628Z,5.50
2022-10-08T12:57:38.406Z,3.18
2022-10-08T12:58:42.980Z,4.10
2022-10-08T12:59:45.423Z,4.10
2022-10-08T13:00:54.433Z,3.70
2022-10-08T13:01:56.856Z,4.70
2022-10-08T13:03:04.491Z,3.40
2022-10-08T13:05:32.482Z,3.70
2022-10-08T13:06:34.773Z,2.80
2022-10-08T13:07:36.887Z,2.40
2022-10-08T13:08:42.236Z,4.00
2022-10-08T13:09:45.037Z,1.80
2022-10-08T13:10:47.435Z,2.20
2022-10-08T13:11:54.844Z,2.80
2022-10-08T13:13:04.269Z,2.80
2022-10-08T13:14:10.174Z,4.00
2022-10-08T13:16:29.499Z,2.30
2022-10-08T13:17:33.597Z,3.20
2022-10-08T13:18:38.119Z,2.80
2022-10-08T13:19:41.402Z,3.30
2022-10-08T13:20:58.231Z,2.30
2022-10-08T13:22:04.598Z,2.40
2022-10-08T13:24:42.135Z,2.50
2022-10-08T13:25:45.851Z,2.90
2022-10-08T13:28:11.202Z,2.30
2022-10-08T13:29:28.769Z,2.90
2022-10-08T13:30:31.652Z,2.90
2022-10-08T13:31:33.888Z,3.30
2022-10-08T13:32:37.280Z,3.00
2022-10-08T13:33:41.221Z,2.00
2022-10-08T13:34:57.116Z,2.80
2022-10-08T13:36:00.935Z,3.20
2022-10-08T13:37:05.662Z,2.60
2022-10-08T13:38:08.677Z,2.40
2022-10-08T13:39:28.105Z,3.30
2022-10-08T13:40:51.036Z,2.70
2022-10-08T13:43:08.259Z,2.80
2022-10-08T13:44:10.603Z,3.60
2022-10-08T13:45:20.639Z,1.30
2022-10-08T13:46:23.767Z,2.50
2022-10-08T13:47:26.300Z,2.50
2022-10-08T13:48:29.109Z,1.90
2022-10-08T13:49:32.413Z,2.60
2022-10-08T13:50:34.734Z,2.20
2022-10-08T13:51:38.051Z,2.10
2022-10-08T13:52:42.770Z,2.50
2022-10-08T13:53:46.157Z,2.20
2022-10-08T13:54:49.772Z,2.70
2022-10-08T13:55:52.657Z,3.10
2022-10-08T13:56:55.314Z,2.40
2022-10-08T13:57:59.177Z,3.70
2022-10-08T13:59:01.429Z,1.00
2022-10-08T14:00:04.772Z,2.50
2022-10-08T14:01:07.352Z,2.90
2022-10-08T14:02:11.952Z,2.70
2022-10-08T14:03:14.363Z,2.60
2022-10-08T14:04:16.590Z,1.40
2022-10-08T14:05:19.575Z,3.40
2022-10-08T14:06:21.926Z,2.40
2022-10-08T14:07:26.797Z,2.30
2022-10-08T14:08:29.214Z,2.80
2022-10-08T14:09:31.330Z,2.20
2022-10-08T14:10:33.530Z,2.00
2022-10-08T14:11:36.285Z,3.50
2022-10-08T14:12:38.529Z,2.18
2022-10-08T14:13:40.775Z,2.60
2022-10-08T14:14:47.509Z,3.40
2022-10-08T14:15:49.672Z,1.90
2022-10-08T14:16:55.408Z,3.00
2022-10-08T14:17:58.266Z,3.40
2022-10-08T14:19:03.233Z,3.70
2022-10-08T14:20:05.326Z,3.50
2022-10-08T14:21:09.818Z,2.60
2022-10-08T14:22:11.996Z,5.10
2022-10-08T14:23:14.103Z,5.60
2022-10-08T14:24:17.599Z,4.80
2022-10-08T14:25:21.445Z,2.10
2022-10-08T14:26:24.437Z,3.40
2022-10-08T14:27:26.411Z,4.30
2022-10-08T14:28:28.652Z,4.40
2022-10-08T14:29:31.450Z,4.90
2022-10-08T14:30:34.036Z,3.90
2022-10-08T14:31:37.327Z,4.50
2022-10-08T14:32:39.691Z,3.80
2022-10-08T14:33:42.026Z,5.10
2022-10-08T14:34:44.318Z,3.70
2022-10-08T14:35:52.889Z,3.50
2022-10-08T14:36:55.157Z,3.90
2022-10-08T14:37:57.625Z,3.80
2022-10-08T14:39:00.042Z,4.90
2022-10-08T14:40:04.093Z,4.27
2022-10-08T14:41:06.860Z,6.10
2022-10-08T14:42:09.104Z,3.64
2022-10-08T14:43:11.235Z,4.80
2022-10-08T14:44:15.582Z,1.90
2022-10-08T14:45:17.709Z,3.50
2022-10-08T14:46:19.943Z,3.60
2022-10-08T14:47:22.849Z,4.27
2022-10-08T14:48:25.930Z,3.70
2022-10-08T14:49:28.143Z,4.27
2022-10-08T14:50:30.391Z,3.70
2022-10-08T14:51:33.092Z,4.50
2022-10-08T14:52:39.279Z,2.73
2022-10-08T14:53:40.794Z,4.90
2022-10-08T14:54:43.326Z,3.60
2022-10-08T14:56:10.538Z,3.90
2022-10-08T14:56:53.660Z,4.90
2022-10-08T14:57:55.925Z,5.60
2022-10-08T14:58:59.093Z,3.80
2022-10-08T15:00:01.613Z,5.80
2022-10-08T15:01:03.743Z,1.90
2022-10-08T15:02:06.072Z,3.90
2022-10-08T15:03:09.018Z,5.70
2022-10-08T15:04:13.585Z,5.80
2022-10-08T15:05:17.258Z,6.00
2022-10-08T15:06:20.332Z,6.30
2022-10-08T15:07:22.505Z,6.00
2022-10-08T15:08:24.678Z,5.80
2022-10-08T15:09:26.820Z,5.40
2022-10-08T15:10:29.717Z,5.09
2022-10-08T15:11:31.882Z,6.40
2022-10-08T15:12:33.980Z,5.30
2022-10-08T15:13:36.692Z,4.60
2022-10-08T15:14:39.165Z,5.40
2022-10-08T15:15:42.791Z,6.60
2022-10-08T15:16:45.735Z,5.50
2022-10-08T15:17:48.464Z,4.60
2022-10-08T15:18:51.615Z,4.90
2022-10-08T15:19:55.154Z,4.70
2022-10-08T15:20:59.917Z,5.20
2022-10-08T15:22:03.759Z,6.00
2022-10-08T15:23:06.623Z,5.90
2022-10-08T15:24:09.257Z,5.60
2022-10-08T15:25:13.459Z,5.30
2022-10-08T15:26:16.971Z,4.70
2022-10-08T15:27:21.024Z,2.60
2022-10-08T15:28:24.023Z,4.80
2022-10-08T15:29:28.160Z,3.50
2022-10-08T15:30:30.431Z,5.50
2022-10-08T15:31:33.793Z,4.50